Benalla, Victoria

2:07 PM AEDT on February 28, 2015 (GMT +1100)
Wangaratta | Change Station
CLOSE
Current Station
Airport
Location: Wangaratta,
Elevation: 502 ft
Nearby Weather Stations

Elev 502 ft 36.42 °S, 146.31 °E | Updated 7 minutes ago

Mostly Cloudy
Mostly Cloudy
90 °F
Feels Like 90 °F
N
7
Wind Variable Wind from North
Gusts mph

Today
High -- | Low -- °F
--% Chance of Precip.
Yesterday
High -- | Low -- °F
Precip. -- in
6:59 AM 7:56 PM
Waxing Gibbous, 74% visible
Pressure 29.71 in
Visibility -9999.0 miles
Clouds
Dew Point 36 °F
Humidity 15%
Rainfall 0.00 in
Snow Depth Not available.
UV Not available.
Pollen Not available.
Air Quality Not available.
Flu Activity Not available.
METAR YWGT 280300Z AUTO 36006KT //// // ////// 32/02 Q1006

More Conditions Fewer Conditions

Pressure 29.71 in
Visibility -9999.0 miles
Clouds
Dew Point 36 °F
Humidity 15%
Rainfall 0.00 in
Snow Depth Not available.
UV Not available.
Pollen Not available.
Air Quality Not available.
Flu Activity Not available.
METAR YWGT 280300Z AUTO 36006KT //// // ////// 32/02 Q1006

More Conditions Fewer Conditions

10-Day Weather Forecast

Almanac

Astronomy

Feb. 28, 2015 Rise Set
Actual Time
Civil Twilight
Nautical Twilight
Astronomical Twilight
Moon
Length of Visible Light
Length of Day
Tomorrow will be .
, % of the Moon is Illuminated

Today's Extremes

Country Highs Country Lows

Community

WunderPhotos

Upload Photos

1,800,951 photos uploaded!

WunderBlogs® & News

Nearby

Air Quality

  Air Quality AQ Index Pollutant
Not available.

Snow Depth

Station Depth Elevation

Earthquake Activity

City Distance Mag. Time & Date
Minimum magnitude displayed is 2.5.

Coastal Water Temperatures

Place Temperature

Nearby Weather Stations